Time;durP1;ratioP1;P1;durP2;ratioP2;P2;SDS_P1;SDS_P2;PMS_P1;PMS_P2;Temp;Humidity;BMP_temperature;BMP_pressure;BME280_temperature;BME280_humidity;BME280_pressure;Samples;Min_cycle;Max_cycle;Signal;HPM_P1;HPM_P2
2023/04/09 00:00:46;;;;;;;2.80;2.23;;;;;;;;;;5093466;28;20448;-70
2023/04/09 00:03:15;;;;;;;1.50;1.40;;;;;;;;;;5094069;28;20793;-70
2023/04/09 00:05:43;;;;;;;5.20;3.17;;;;;;;;;;5093600;28;20539;-70
2023/04/09 00:08:10;;;;;;;2.53;2.33;;;;;;;;;;5093264;28;20950;-70
2023/04/09 00:10:37;;;;;;;2.67;2.47;;;;;;;;;;5094048;28;20448;-70
2023/04/09 00:13:04;;;;;;;8.60;2.50;;;;;;;;;;5093985;28;20440;-70
2023/04/09 00:15:31;;;;;;;2.33;2.07;;;;;;;;;;5093920;28;20456;-70
2023/04/09 00:17:58;;;;;;;3.40;2.70;;;;;;;;;;5092517;28;20518;-70
2023/04/09 00:20:27;;;;;;;5.10;2.87;;;;;;;;;;5093321;28;20486;-70
2023/04/09 00:22:55;;;;;;;11.40;2.53;;;;;;;;;;5093208;28;20449;-70
2023/04/09 00:25:22;;;;;;;2.53;2.33;;;;;;;;;;5093581;28;20452;-70
2023/04/09 00:27:49;;;;;;;1.97;1.67;;;;;;;;;;5092707;28;20440;-70
2023/04/09 00:30:16;;;;;;;3.60;2.33;;;;;;;;;;5093683;28;20451;-70
2023/04/09 00:32:43;;;;;;;2.03;1.70;;;;;;;;;;5092949;28;20455;-70
2023/04/09 00:35:10;;;;;;;5.30;2.20;;;;;;;;;;5093517;28;20455;-70
2023/04/09 00:37:39;;;;;;;2.63;1.57;;;;;;;;;;5092387;28;21211;-75
2023/04/09 00:40:07;;;;;;;4.57;3.50;;;;;;;;;;5093566;28;20448;-70
2023/04/09 00:42:34;;;;;;;3.73;1.90;;;;;;;;;;5093442;28;20452;-70
2023/04/09 00:45:02;;;;;;;1.50;1.30;;;;;;;;;;5092602;28;20531;-70
2023/04/09 00:47:30;;;;;;;3.37;3.07;;;;;;;;;;5092815;28;20458;-70
2023/04/09 00:49:58;;;;;;;2.40;2.20;;;;;;;;;;5092808;28;20824;-70
2023/04/09 00:52:25;;;;;;;3.20;2.37;;;;;;;;;;5092839;28;20923;-70
2023/04/09 00:54:55;;;;;;;2.90;1.90;;;;;;;;;;5092573;28;20467;-70
2023/04/09 00:57:22;;;;;;;2.37;1.80;;;;;;;;;;5092565;28;20456;-70
2023/04/09 00:59:49;;;;;;;2.20;1.90;;;;;;;;;;5092254;28;20951;-70
2023/04/09 01:02:16;;;;;;;2.50;2.00;;;;;;;;;;5092947;28;20472;-70
2023/04/09 01:04:43;;;;;;;1.77;1.67;;;;;;;;;;5091817;28;20449;-70
2023/04/09 01:07:13;;;;;;;3.63;2.63;;;;;;;;;;5092493;28;20448;-70
2023/04/09 01:09:43;;;;;;;4.97;2.90;;;;;;;;;;5092117;28;20452;-70
2023/04/09 01:12:15;;;;;;;4.33;2.23;;;;;;;;;;5092721;28;20444;-70
2023/04/09 01:14:46;;;;;;;3.60;2.70;;;;;;;;;;5092408;28;20437;-70
2023/04/09 01:17:16;;;;;;;2.80;2.10;;;;;;;;;;5092378;28;20523;-70
2023/04/09 01:19:46;;;;;;;2.50;2.30;;;;;;;;;;5091491;28;20519;-70
2023/04/09 01:22:21;;;;;;;2.70;1.77;;;;;;;;;;5092777;28;20440;-70
2023/04/09 01:24:56;;;;;;;3.10;1.80;;;;;;;;;;5091907;28;20444;-70
2023/04/09 01:27:25;;;;;;;3.73;2.37;;;;;;;;;;5092225;28;20440;-70
2023/04/09 01:29:55;;;;;;;5.33;3.27;;;;;;;;;;5091903;28;20444;-70
2023/04/09 01:32:22;;;;;;;3.00;2.10;;;;;;;;;;5092753;28;20450;-70
2023/04/09 01:34:50;;;;;;;2.40;1.50;;;;;;;;;;5094984;28;20447;-69
2023/04/09 01:37:17;;;;;;;3.60;2.30;;;;;;;;;;5104587;28;20447;-73
2023/04/09 01:39:45;;;;;;;2.07;1.87;;;;;;;;;;5105172;28;20484;-69
2023/04/09 01:42:12;;;;;;;2.33;2.13;;;;;;;;;;5103934;28;20496;-70
2023/04/09 01:44:40;;;;;;;2.00;1.83;;;;;;;;;;5097879;28;20445;-70
2023/04/09 01:47:09;;;;;;;4.30;2.87;;;;;;;;;;5092025;28;20540;-70
2023/04/09 01:49:36;;;;;;;2.40;2.20;;;;;;;;;;5092083;28;20464;-70
2023/04/09 01:52:04;;;;;;;3.37;2.00;;;;;;;;;;5091812;28;20460;-70
2023/04/09 01:54:31;;;;;;;3.77;2.77;;;;;;;;;;5091800;28;20437;-70
2023/04/09 01:56:58;;;;;;;3.83;2.23;;;;;;;;;;5091264;28;20471;-70
2023/04/09 01:59:26;;;;;;;3.67;1.90;;;;;;;;;;5091423;28;20818;-70
2023/04/09 02:01:54;;;;;;;2.97;1.87;;;;;;;;;;5091285;28;20451;-70
2023/04/09 02:04:24;;;;;;;4.00;2.60;;;;;;;;;;5091614;28;20448;-70
2023/04/09 02:06:54;;;;;;;3.83;2.80;;;;;;;;;;5090930;28;20451;-70
2023/04/09 02:09:22;;;;;;;3.13;2.83;;;;;;;;;;5091276;28;20456;-70
2023/04/09 02:11:50;;;;;;;2.40;2.20;;;;;;;;;;5091170;28;20448;-70
2023/04/09 02:14:18;;;;;;;4.87;2.50;;;;;;;;;;5091604;28;20452;-70
2023/04/09 02:16:45;;;;;;;2.13;1.83;;;;;;;;;;5090190;28;20457;-70
2023/04/09 02:19:12;;;;;;;5.97;4.10;;;;;;;;;;5091033;28;20503;-70
2023/04/09 02:21:40;;;;;;;2.00;1.60;;;;;;;;;;5090887;28;20480;-70
2023/04/09 02:24:08;;;;;;;1.53;1.43;;;;;;;;;;5091334;28;20455;-71
2023/04/09 02:26:35;;;;;;;2.77;2.57;;;;;;;;;;5091526;28;20456;-70
2023/04/09 02:29:02;;;;;;;3.07;2.80;;;;;;;;;;5090297;28;20448;-70
2023/04/09 02:31:29;;;;;;;2.93;1.60;;;;;;;;;;5090961;28;20441;-70
2023/04/09 02:33:56;;;;;;;1.83;1.73;;;;;;;;;;5090542;28;20440;-70
2023/04/09 02:36:23;;;;;;;2.97;2.70;;;;;;;;;;5091182;28;20440;-70
2023/04/09 02:38:52;;;;;;;3.33;1.83;;;;;;;;;;5090306;28;20484;-71
2023/04/09 02:41:19;;;;;;;3.50;2.07;;;;;;;;;;5091179;28;20822;-70
2023/04/09 02:43:46;;;;;;;1.73;1.63;;;;;;;;;;5086904;28;20454;-70
2023/04/09 02:46:14;;;;;;;4.70;2.50;;;;;;;;;;5091291;28;20452;-70
2023/04/09 02:48:41;;;;;;;2.70;1.73;;;;;;;;;;5090279;28;20444;-70
2023/04/09 02:51:08;;;;;;;2.23;1.70;;;;;;;;;;5090865;28;20940;-70
2023/04/09 02:53:36;;;;;;;6.97;3.33;;;;;;;;;;5090860;28;20456;-70
2023/04/09 02:56:05;;;;;;;2.37;1.73;;;;;;;;;;5091156;28;20480;-70
2023/04/09 02:58:32;;;;;;;2.13;1.93;;;;;;;;;;5090875;28;20827;-70
2023/04/09 03:00:59;;;;;;;3.33;3.03;;;;;;;;;;5090600;28;20444;-70
2023/04/09 03:03:26;;;;;;;2.47;2.07;;;;;;;;;;5090699;28;20448;-70
2023/04/09 03:05:53;;;;;;;2.50;1.90;;;;;;;;;;5090620;28;20450;-70
2023/04/09 03:08:20;;;;;;;4.17;3.77;;;;;;;;;;5090563;28;20449;-70
2023/04/09 03:10:47;;;;;;;2.57;1.50;;;;;;;;;;5090474;28;20504;-70
2023/04/09 03:13:16;;;;;;;2.43;2.13;;;;;;;;;;5090896;28;20445;-70
2023/04/09 03:15:43;;;;;;;2.83;2.40;;;;;;;;;;5090181;28;20946;-70
2023/04/09 03:18:10;;;;;;;3.40;2.90;;;;;;;;;;5090151;28;20510;-70
2023/04/09 03:20:38;;;;;;;4.60;2.00;;;;;;;;;;5091122;28;20503;-74
2023/04/09 03:23:05;;;;;;;1.93;1.37;;;;;;;;;;5091061;28;20445;-70
2023/04/09 03:25:32;;;;;;;2.27;1.57;;;;;;;;;;5090945;28;20447;-70
2023/04/09 03:27:59;;;;;;;4.10;2.37;;;;;;;;;;5093530;28;20470;-70
2023/04/09 03:30:28;;;;;;;4.33;3.40;;;;;;;;;;5094879;28;20456;-70
2023/04/09 03:32:55;;;;;;;3.13;2.83;;;;;;;;;;5094201;28;20455;-70
2023/04/09 03:35:22;;;;;;;3.67;2.50;;;;;;;;;;5094400;28;20907;-70
2023/04/09 03:37:50;;;;;;;1.73;1.63;;;;;;;;;;5093718;28;20444;-70
2023/04/09 03:40:17;;;;;;;3.53;2.70;;;;;;;;;;5094076;28;20486;-70
2023/04/09 03:42:44;;;;;;;6.13;2.23;;;;;;;;;;5093902;28;20448;-70
2023/04/09 03:45:11;;;;;;;4.37;2.50;;;;;;;;;;5094227;28;20928;-70
2023/04/09 03:47:40;;;;;;;3.30;1.80;;;;;;;;;;5093470;28;20459;-70
2023/04/09 03:50:07;;;;;;;2.03;1.80;;;;;;;;;;5094233;28;20555;-69
2023/04/09 03:52:34;;;;;;;3.33;1.83;;;;;;;;;;5094231;28;20445;-70
2023/04/09 03:55:03;;;;;;;2.97;2.40;;;;;;;;;;5093768;28;20436;-70
2023/04/09 03:57:30;;;;;;;6.10;2.90;;;;;;;;;;5094179;28;20950;-70
2023/04/09 03:59:57;;;;;;;2.33;2.00;;;;;;;;;;5093702;28;20837;-70
2023/04/09 04:02:25;;;;;;;2.67;2.43;;;;;;;;;;5094466;28;20448;-70
2023/04/09 04:04:54;;;;;;;4.53;2.80;;;;;;;;;;5093666;28;20887;-70
2023/04/09 04:07:21;;;;;;;1.87;1.60;;;;;;;;;;5094139;28;20809;-70
2023/04/09 04:09:48;;;;;;;1.77;1.63;;;;;;;;;;5094104;28;20452;-69
2023/04/09 04:12:15;;;;;;;3.57;2.27;;;;;;;;;;5105458;28;20453;-68
2023/04/09 04:14:42;;;;;;;2.17;1.70;;;;;;;;;;5106734;28;20451;-69
2023/04/09 04:17:11;;;;;;;2.43;1.83;;;;;;;;;;5105729;28;20449;-68
2023/04/09 04:19:38;;;;;;;3.10;2.17;;;;;;;;;;5104154;28;20526;-74
2023/04/09 04:22:06;;;;;;;3.43;2.97;;;;;;;;;;5100353;28;20449;-69
2023/04/09 04:24:33;;;;;;;6.07;2.73;;;;;;;;;;5095207;28;20441;-69
2023/04/09 04:27:00;;;;;;;3.60;2.60;;;;;;;;;;5092746;28;20444;-69
2023/04/09 04:29:28;;;;;;;6.20;1.10;;;;;;;;;;5093667;28;20475;-70
2023/04/09 04:31:55;;;;;;;3.83;3.07;;;;;;;;;;5093086;28;20456;-70
2023/04/09 04:34:22;;;;;;;1.70;1.50;;;;;;;;;;5093404;28;20452;-70
2023/04/09 04:36:49;;;;;;;2.73;2.20;;;;;;;;;;5092869;28;20440;-70
2023/04/09 04:39:17;;;;;;;2.13;1.93;;;;;;;;;;5092586;28;20472;-70
2023/04/09 04:41:44;;;;;;;3.00;2.47;;;;;;;;;;5092910;28;20448;-70
2023/04/09 04:44:12;;;;;;;2.53;2.30;;;;;;;;;;5093287;28;20459;-70
2023/04/09 04:46:39;;;;;;;2.33;1.40;;;;;;;;;;5092836;28;20444;-70
2023/04/09 04:49:06;;;;;;;11.80;3.57;;;;;;;;;;5093023;28;20475;-69
2023/04/09 04:51:33;;;;;;;2.93;2.63;;;;;;;;;;5093397;28;20449;-70
2023/04/09 04:54:00;;;;;;;3.93;1.90;;;;;;;;;;5092296;28;20460;-70
2023/04/09 04:56:28;;;;;;;5.37;2.87;;;;;;;;;;5093120;28;20951;-70
2023/04/09 04:58:55;;;;;;;1.80;1.70;;;;;;;;;;5091963;28;20479;-70
2023/04/09 05:01:22;;;;;;;3.17;2.10;;;;;;;;;;5092721;28;20447;-70
2023/04/09 05:03:50;;;;;;;4.63;3.50;;;;;;;;;;5092448;28;20452;-70
2023/04/09 05:06:17;;;;;;;4.73;3.40;;;;;;;;;;5093002;28;20441;-70
2023/04/09 05:08:44;;;;;;;1.93;1.73;;;;;;;;;;5092033;28;20444;-70
2023/04/09 05:11:13;;;;;;;3.27;2.50;;;;;;;;;;5092702;28;20460;-70
2023/04/09 05:13:42;;;;;;;1.87;1.77;;;;;;;;;;5092245;28;20517;-70
2023/04/09 05:16:09;;;;;;;2.63;2.43;;;;;;;;;;5092437;28;20444;-70
2023/04/09 05:18:36;;;;;;;4.77;3.50;;;;;;;;;;5092406;28;20819;-70
2023/04/09 05:21:03;;;;;;;2.80;1.50;;;;;;;;;;5092692;28;20492;-70
2023/04/09 05:23:30;;;;;;;1.80;1.47;;;;;;;;;;5092147;28;20453;-69
2023/04/09 05:25:57;;;;;;;2.23;2.03;;;;;;;;;;5091973;28;20662;-70
2023/04/09 05:28:24;;;;;;;3.67;2.27;;;;;;;;;;5092157;28;20448;-70
2023/04/09 05:30:53;;;;;;;2.00;1.73;;;;;;;;;;5091665;28;20974;-70
2023/04/09 05:33:20;;;;;;;5.50;2.87;;;;;;;;;;5092143;28;20453;-72
2023/04/09 05:35:47;;;;;;;2.40;1.90;;;;;;;;;;5091816;28;20451;-71
2023/04/09 05:38:14;;;;;;;3.50;2.73;;;;;;;;;;5092119;28;20447;-71
2023/04/09 05:40:43;;;;;;;3.33;1.93;;;;;;;;;;5091473;28;20483;-71
2023/04/09 05:43:10;;;;;;;4.27;2.37;;;;;;;;;;5092241;28;20452;-70
2023/04/09 05:45:38;;;;;;;5.33;2.40;;;;;;;;;;5091907;28;20808;-77
2023/04/09 05:48:07;;;;;;;4.03;2.03;;;;;;;;;;5091965;28;20453;-69
2023/04/09 05:50:34;;;;;;;2.80;2.60;;;;;;;;;;5091325;28;20456;-70
2023/04/09 05:53:01;;;;;;;2.20;1.77;;;;;;;;;;5091326;28;20954;-70
2023/04/09 05:55:28;;;;;;;4.80;2.87;;;;;;;;;;5091885;28;20811;-70
2023/04/09 05:57:56;;;;;;;2.73;2.53;;;;;;;;;;5091058;28;20440;-70
2023/04/09 06:00:23;;;;;;;4.80;3.47;;;;;;;;;;5091628;28;20567;-70
2023/04/09 06:02:50;;;;;;;3.77;3.47;;;;;;;;;;5091455;28;20451;-70
2023/04/09 06:05:18;;;;;;;3.10;1.83;;;;;;;;;;5091626;28;20460;-70
2023/04/09 06:07:45;;;;;;;3.30;2.13;;;;;;;;;;5090881;28;20455;-71
2023/04/09 06:10:12;;;;;;;4.37;2.93;;;;;;;;;;5091567;28;20467;-71
2023/04/09 06:12:39;;;;;;;4.23;2.30;;;;;;;;;;5090852;28;20959;-71
2023/04/09 06:15:07;;;;;;;4.13;2.67;;;;;;;;;;5091744;28;20448;-71
2023/04/09 06:17:34;;;;;;;3.20;2.17;;;;;;;;;;5091388;28;20441;-70
2023/04/09 06:20:02;;;;;;;5.33;3.23;;;;;;;;;;5090363;28;20564;-70
2023/04/09 06:22:30;;;;;;;3.73;3.03;;;;;;;;;;5091701;28;20440;-71
2023/04/09 06:24:57;;;;;;;3.70;2.03;;;;;;;;;;5090484;28;20897;-71
2023/04/09 06:27:25;;;;;;;4.20;3.80;;;;;;;;;;5091128;28;20478;-71
2023/04/09 06:29:52;;;;;;;5.67;4.63;;;;;;;;;;5090782;28;20531;-71
2023/04/09 06:32:19;;;;;;;4.60;4.17;;;;;;;;;;5091457;28;20447;-71
2023/04/09 06:34:47;;;;;;;5.30;3.70;;;;;;;;;;5090542;28;20437;-70
2023/04/09 06:37:14;;;;;;;3.17;2.87;;;;;;;;;;5091156;28;20803;-70
2023/04/09 06:39:43;;;;;;;4.93;3.40;;;;;;;;;;5090248;28;20484;-70
2023/04/09 06:42:10;;;;;;;5.10;3.40;;;;;;;;;;5091201;28;20445;-74
2023/04/09 06:44:37;;;;;;;3.40;3.10;;;;;;;;;;5092050;28;20814;-75
2023/04/09 06:47:06;;;;;;;6.27;3.37;;;;;;;;;;5100710;28;20784;-70
2023/04/09 06:49:33;;;;;;;5.00;3.67;;;;;;;;;;5103040;28;20460;-69
2023/04/09 06:52:00;;;;;;;4.00;3.60;;;;;;;;;;5102013;28;20451;-71
2023/04/09 06:54:28;;;;;;;4.93;3.83;;;;;;;;;;5099641;28;20525;-71
2023/04/09 06:56:56;;;;;;;3.80;3.43;;;;;;;;;;5090963;28;20444;-71
2023/04/09 06:59:23;;;;;;;3.30;2.63;;;;;;;;;;5091405;28;20444;-70
2023/04/09 07:01:50;;;;;;;4.77;3.83;;;;;;;;;;5092556;28;20467;-72
2023/04/09 07:04:17;;;;;;;3.63;3.33;;;;;;;;;;5095401;28;20440;-71
2023/04/09 07:06:45;;;;;;;3.80;3.20;;;;;;;;;;5094389;28;20543;-71
2023/04/09 07:09:12;;;;;;;4.90;3.40;;;;;;;;;;5095204;28;20494;-71
2023/04/09 07:11:39;;;;;;;6.10;4.10;;;;;;;;;;5094213;28;20441;-72
2023/04/09 07:14:08;;;;;;;3.00;2.80;;;;;;;;;;5094877;28;20449;-71
2023/04/09 07:16:35;;;;;;;3.80;3.07;;;;;;;;;;5094623;28;20445;-71
2023/04/09 07:19:02;;;;;;;2.83;2.43;;;;;;;;;;5094730;28;20961;-71
2023/04/09 07:21:29;;;;;;;3.30;2.27;;;;;;;;;;5094562;28;20894;-71
2023/04/09 07:23:56;;;;;;;3.37;2.40;;;;;;;;;;5094363;28;20471;-71
2023/04/09 07:26:24;;;;;;;4.03;2.40;;;;;;;;;;5094639;28;20448;-71
2023/04/09 07:28:51;;;;;;;6.20;3.20;;;;;;;;;;5093912;28;20456;-72
2023/04/09 07:31:19;;;;;;;2.83;2.60;;;;;;;;;;5094800;28;20543;-71
2023/04/09 07:33:46;;;;;;;5.13;3.07;;;;;;;;;;5094290;28;20804;-71
2023/04/09 07:36:13;;;;;;;3.60;2.50;;;;;;;;;;5094500;28;20440;-71
2023/04/09 07:38:40;;;;;;;3.40;2.53;;;;;;;;;;5093461;28;20455;-71
2023/04/09 07:41:07;;;;;;;5.50;2.20;;;;;;;;;;5094394;28;20483;-73
2023/04/09 07:43:34;;;;;;;1.97;1.63;;;;;;;;;;5094682;28;20445;-71
2023/04/09 07:46:02;;;;;;;3.70;1.57;;;;;;;;;;5093513;28;20452;-71
2023/04/09 07:48:30;;;;;;;2.57;1.57;;;;;;;;;;5094172;28;20459;-71
2023/04/09 07:50:57;;;;;;;3.30;2.67;;;;;;;;;;5094088;28;20709;-71
2023/04/09 07:53:24;;;;;;;2.97;2.20;;;;;;;;;;5094456;28;20483;-71
2023/04/09 07:55:52;;;;;;;3.00;1.73;;;;;;;;;;5093282;28;20448;-71
2023/04/09 07:58:19;;;;;;;3.03;1.50;;;;;;;;;;5094036;28;20455;-71
2023/04/09 08:00:46;;;;;;;4.30;2.30;;;;;;;;;;5093398;28;20487;-71
2023/04/09 08:03:13;;;;;;;2.77;2.53;;;;;;;;;;5094208;28;20764;-70
2023/04/09 08:05:42;;;;;;;2.60;2.40;;;;;;;;;;5093558;28;20514;-71
2023/04/09 08:08:09;;;;;;;3.07;2.53;;;;;;;;;;5093682;28;20456;-72
2023/04/09 08:10:36;;;;;;;5.30;2.40;;;;;;;;;;5093801;28;20448;-71
2023/04/09 08:13:03;;;;;;;2.30;2.00;;;;;;;;;;5092556;28;20930;-70
2023/04/09 08:15:31;;;;;;;4.13;2.77;;;;;;;;;;5093667;28;20956;-70
2023/04/09 08:17:58;;;;;;;4.73;2.70;;;;;;;;;;5093088;28;20444;-70
2023/04/09 08:20:26;;;;;;;5.57;2.73;;;;;;;;;;5093662;28;20496;-70
2023/04/09 08:22:55;;;;;;;3.50;2.13;;;;;;;;;;5093332;28;20455;-71
2023/04/09 08:25:22;;;;;;;4.53;3.40;;;;;;;;;;5093591;28;20444;-71
2023/04/09 08:27:49;;;;;;;3.27;1.90;;;;;;;;;;5092938;28;20804;-70
2023/04/09 08:30:16;;;;;;;3.70;2.83;;;;;;;;;;5093726;28;20455;-71
2023/04/09 08:32:44;;;;;;;3.60;2.33;;;;;;;;;;5092953;28;20468;-71
2023/04/09 08:35:12;;;;;;;4.23;2.03;;;;;;;;;;5093612;28;20457;-71
2023/04/09 08:37:39;;;;;;;1.50;1.30;;;;;;;;;;5092511;28;20488;-71
2023/04/09 08:40:08;;;;;;;2.30;1.33;;;;;;;;;;5093383;28;20487;-71
2023/04/09 08:42:36;;;;;;;1.97;1.77;;;;;;;;;;5093412;28;20444;-71
2023/04/09 08:45:04;;;;;;;2.20;1.47;;;;;;;;;;5093406;28;20544;-71
2023/04/09 08:47:32;;;;;;;2.87;1.60;;;;;;;;;;5092831;28;20832;-71
2023/04/09 08:49:59;;;;;;;2.23;1.83;;;;;;;;;;5092268;28;20456;-70
2023/04/09 08:52:32;;;;;;;3.77;2.10;;;;;;;;;;5093176;28;20924;-70
2023/04/09 08:54:59;;;;;;;1.73;1.30;;;;;;;;;;5092294;28;20875;-71
2023/04/09 08:57:28;;;;;;;3.33;1.70;;;;;;;;;;5092591;28;20452;-71
2023/04/09 08:59:56;;;;;;;3.87;2.33;;;;;;;;;;5092087;28;20444;-71
2023/04/09 09:02:23;;;;;;;3.23;2.93;;;;;;;;;;5092640;28;20452;-71
2023/04/09 09:04:52;;;;;;;2.30;2.10;;;;;;;;;;5092159;28;20536;-70
2023/04/09 09:07:19;;;;;;;3.23;2.43;;;;;;;;;;5092899;28;20456;-71
2023/04/09 09:09:53;;;;;;;3.90;2.30;;;;;;;;;;5092447;28;20513;-71
2023/04/09 09:12:34;;;;;;;3.63;2.70;;;;;;;;;;5092865;28;20444;-70
2023/04/09 09:15:01;;;;;;;2.17;1.87;;;;;;;;;;5092450;28;20454;-71
2023/04/09 09:17:28;;;;;;;3.00;2.60;;;;;;;;;;5097045;28;20460;-69
2023/04/09 09:19:55;;;;;;;2.80;2.40;;;;;;;;;;5102709;28;20479;-69
2023/04/09 09:22:22;;;;;;;3.57;2.47;;;;;;;;;;5103054;28;21010;-70
2023/04/09 09:24:50;;;;;;;4.30;2.87;;;;;;;;;;5100524;28;20452;-71
2023/04/09 09:27:35;;;;;;;6.17;3.20;;;;;;;;;;5095348;28;20444;-71
2023/04/09 09:30:04;;;;;;;4.13;2.87;;;;;;;;;;5092711;28;20553;-71
2023/04/09 09:32:31;;;;;;;5.70;3.07;;;;;;;;;;5092512;28;20864;-71
2023/04/09 09:35:02;;;;;;;3.30;2.70;;;;;;;;;;5091897;28;20789;-70
2023/04/09 09:37:29;;;;;;;3.80;2.33;;;;;;;;;;5091866;28;20451;-71
2023/04/09 09:39:56;;;;;;;2.30;2.10;;;;;;;;;;5091528;28;20445;-71
2023/04/09 09:42:23;;;;;;;2.83;2.10;;;;;;;;;;5091717;28;20487;-70
2023/04/09 09:44:51;;;;;;;3.53;3.23;;;;;;;;;;5091821;28;20451;-71
2023/04/09 09:47:20;;;;;;;3.53;1.90;;;;;;;;;;5091780;28;20478;-70
2023/04/09 09:49:49;;;;;;;2.30;1.53;;;;;;;;;;5091457;28;20463;-70
2023/04/09 09:52:16;;;;;;;2.47;2.00;;;;;;;;;;5092159;28;20539;-71
2023/04/09 09:54:44;;;;;;;2.37;1.80;;;;;;;;;;5091224;28;20447;-70
2023/04/09 09:57:13;;;;;;;2.40;1.57;;;;;;;;;;5091415;28;20453;-71
2023/04/09 09:59:41;;;;;;;2.87;1.87;;;;;;;;;;5091192;28;21068;-70
2023/04/09 10:02:12;;;;;;;2.60;2.20;;;;;;;;;;5091886;28;20502;-71
2023/04/09 10:04:41;;;;;;;2.30;1.90;;;;;;;;;;5091514;28;20748;-71
2023/04/09 10:07:09;;;;;;;2.17;1.87;;;;;;;;;;5091199;28;20448;-71
2023/04/09 10:09:38;;;;;;;2.77;1.67;;;;;;;;;;5092126;28;20460;-70
2023/04/09 10:12:07;;;;;;;2.43;1.70;;;;;;;;;;5091729;28;20452;-70
2023/04/09 10:14:35;;;;;;;3.10;2.30;;;;;;;;;;5091568;28;20452;-71
2023/04/09 10:17:03;;;;;;;2.47;2.00;;;;;;;;;;5090810;28;20436;-70
2023/04/09 10:19:30;;;;;;;2.50;2.27;;;;;;;;;;5091516;28;20502;-70
2023/04/09 10:22:03;;;;;;;1.70;1.20;;;;;;;;;;5090801;28;20983;-70
2023/04/09 10:24:30;;;;;;;2.33;1.63;;;;;;;;;;5091535;28;20810;-70
2023/04/09 10:27:09;;;;;;;2.20;1.40;;;;;;;;;;5090250;28;20800;-70
2023/04/09 10:29:42;;;;;;;1.87;1.33;;;;;;;;;;5091663;28;20440;-70
2023/04/09 10:32:10;;;;;;;2.10;1.80;;;;;;;;;;5091221;28;20957;-70
2023/04/09 10:34:39;;;;;;;1.40;1.30;;;;;;;;;;5091306;28;20447;-70
2023/04/09 10:37:09;;;;;;;1.77;1.50;;;;;;;;;;5090594;28;20453;-70
2023/04/09 10:39:41;;;;;;;1.70;1.50;;;;;;;;;;5091471;28;20452;-70
2023/04/09 10:42:09;;;;;;;1.93;1.17;;;;;;;;;;5090786;28;20469;-73
2023/04/09 10:44:37;;;;;;;3.70;2.50;;;;;;;;;;5078300;28;20441;-70
2023/04/09 10:47:05;;;;;;;2.67;2.10;;;;;;;;;;5090838;28;20590;-70
2023/04/09 10:49:37;;;;;;;2.17;2.00;;;;;;;;;;5091105;28;20481;-70
2023/04/09 10:52:05;;;;;;;2.70;2.50;;;;;;;;;;5091411;28;20811;-70
2023/04/09 10:54:42;;;;;;;3.43;2.90;;;;;;;;;;5090940;28;20965;-70
2023/04/09 10:57:17;;;;;;;1.97;1.73;;;;;;;;;;5090706;28;20466;-70
2023/04/09 10:59:45;;;;;;;1.70;1.30;;;;;;;;;;5090356;28;20452;-70
2023/04/09 11:02:31;;;;;;;2.20;1.50;;;;;;;;;;5091073;28;20480;-70
2023/04/09 11:05:05;;;;;;;1.73;1.47;;;;;;;;;;5090251;28;20653;-70
2023/04/09 11:07:33;;;;;;;1.30;1.17;;;;;;;;;;5090746;28;20501;-69
2023/04/09 11:10:02;;;;;;;2.37;2.00;;;;;;;;;;5090110;28;20924;-70
2023/04/09 11:12:29;;;;;;;2.00;1.80;;;;;;;;;;5090986;28;20445;-70
2023/04/09 11:14:56;;;;;;;2.60;1.63;;;;;;;;;;5090193;28;20459;-70
2023/04/09 11:17:23;;;;;;;3.40;3.00;;;;;;;;;;5090727;28;20827;-70
2023/04/09 11:19:50;;;;;;;1.67;1.40;;;;;;;;;;5090433;28;20460;-70
2023/04/09 11:22:17;;;;;;;3.13;1.60;;;;;;;;;;5091116;28;20982;-70
2023/04/09 11:24:45;;;;;;;2.13;1.93;;;;;;;;;;5090374;28;20455;-70
2023/04/09 11:27:13;;;;;;;2.80;2.30;;;;;;;;;;5090601;28;20453;-70
2023/04/09 11:29:41;;;;;;;1.50;1.40;;;;;;;;;;5090247;28;20459;-70
2023/04/09 11:32:08;;;;;;;3.73;1.83;;;;;;;;;;5090997;28;20449;-72
2023/04/09 11:34:35;;;;;;;4.10;2.00;;;;;;;;;;5091025;28;20444;-70
2023/04/09 11:37:05;;;;;;;2.40;1.77;;;;;;;;;;5089780;28;20445;-70
2023/04/09 11:39:33;;;;;;;1.67;1.50;;;;;;;;;;5090870;28;20535;-70
2023/04/09 11:42:00;;;;;;;2.93;2.70;;;;;;;;;;5090357;28;20492;-70
2023/04/09 11:44:29;;;;;;;3.10;2.10;;;;;;;;;;5091201;28;20755;-70
2023/04/09 11:46:57;;;;;;;2.67;2.43;;;;;;;;;;5098004;28;20453;-69
2023/04/09 11:49:24;;;;;;;2.03;1.83;;;;;;;;;;5111309;28;20652;-71
2023/04/09 11:51:52;;;;;;;4.53;3.17;;;;;;;;;;5112519;28;20445;-71
2023/04/09 11:54:19;;;;;;;2.07;1.93;;;;;;;;;;5111701;28;20484;-72
2023/04/09 11:56:46;;;;;;;2.67;2.13;;;;;;;;;;5105940;28;20446;-70
2023/04/09 11:59:15;;;;;;;2.57;2.33;;;;;;;;;;5111333;28;20452;-71
2023/04/09 12:01:49;;;;;;;1.60;1.10;;;;;;;;;;5113041;28;20472;-70
2023/04/09 12:04:20;;;;;;;3.63;2.20;;;;;;;;;;5105715;28;20444;-70
2023/04/09 12:06:47;;;;;;;1.97;1.50;;;;;;;;;;5101120;28;20531;-70
2023/04/09 12:09:15;;;;;;;1.77;1.53;;;;;;;;;;5095396;28;20928;-70
2023/04/09 12:11:43;;;;;;;2.97;1.87;;;;;;;;;;5093530;28;20448;-71
2023/04/09 12:14:13;;;;;;;5.10;1.77;;;;;;;;;;5093975;28;20449;-70
2023/04/09 12:16:42;;;;;;;1.93;1.50;;;;;;;;;;5092724;28;20453;-71
2023/04/09 12:19:11;;;;;;;3.13;2.10;;;;;;;;;;5093767;28;20463;-71
2023/04/09 12:21:48;;;;;;;2.13;1.60;;;;;;;;;;5092871;28;20902;-72
2023/04/09 12:24:15;;;;;;;2.00;1.83;;;;;;;;;;5093991;28;20806;-71
2023/04/09 12:26:43;;;;;;;3.00;1.93;;;;;;;;;;5092667;28;20460;-71
2023/04/09 12:29:10;;;;;;;2.73;1.40;;;;;;;;;;5093345;28;20923;-71
2023/04/09 12:31:37;;;;;;;2.17;1.70;;;;;;;;;;5093905;28;20453;-71
2023/04/09 12:34:04;;;;;;;2.60;2.13;;;;;;;;;;5093621;28;20540;-70
2023/04/09 12:36:33;;;;;;;3.30;2.27;;;;;;;;;;5093394;28;20449;-70
2023/04/09 12:39:00;;;;;;;2.30;1.77;;;;;;;;;;5092935;28;20450;-71
2023/04/09 12:41:27;;;;;;;1.40;1.03;;;;;;;;;;5093344;28;20480;-71
2023/04/09 12:43:54;;;;;;;4.07;1.87;;;;;;;;;;5092760;28;20453;-71
2023/04/09 12:46:21;;;;;;;1.77;1.67;;;;;;;;;;5092717;28;20924;-70
2023/04/09 12:48:48;;;;;;;2.80;1.83;;;;;;;;;;5092646;28;20483;-71
2023/04/09 12:51:16;;;;;;;2.43;2.23;;;;;;;;;;5093436;28;20452;-70
2023/04/09 12:53:44;;;;;;;1.60;1.50;;;;;;;;;;5092631;28;20760;-71
2023/04/09 12:56:12;;;;;;;1.63;1.30;;;;;;;;;;5092620;28;20459;-70
2023/04/09 12:58:39;;;;;;;2.43;1.93;;;;;;;;;;5092166;28;20449;-72
2023/04/09 13:01:06;;;;;;;2.47;1.77;;;;;;;;;;5093158;28;20540;-70
2023/04/09 13:03:33;;;;;;;2.17;1.63;;;;;;;;;;5093096;28;21187;-70
2023/04/09 13:06:00;;;;;;;1.83;1.40;;;;;;;;;;5092107;28;20447;-71
2023/04/09 13:08:27;;;;;;;2.60;1.80;;;;;;;;;;5092604;28;20449;-71
2023/04/09 13:10:56;;;;;;;1.80;1.63;;;;;;;;;;5092240;28;20444;-71
2023/04/09 13:13:23;;;;;;;1.87;1.77;;;;;;;;;;5092401;28;20936;-70
2023/04/09 13:15:51;;;;;;;3.10;2.00;;;;;;;;;;5092386;28;20449;-71
2023/04/09 13:18:18;;;;;;;2.07;1.77;;;;;;;;;;5092108;28;20494;-71
2023/04/09 13:20:45;;;;;;;2.33;2.07;;;;;;;;;;5091695;28;20472;-70
2023/04/09 13:23:12;;;;;;;2.60;2.20;;;;;;;;;;5092613;28;20491;-71
2023/04/09 13:25:39;;;;;;;1.70;1.60;;;;;;;;;;5092161;28;20808;-71
2023/04/09 13:28:07;;;;;;;1.73;1.47;;;;;;;;;;5092246;28;20457;-70
2023/04/09 13:30:35;;;;;;;1.90;1.40;;;;;;;;;;5092667;28;20440;-70
2023/04/09 13:33:02;;;;;;;2.33;1.67;;;;;;;;;;5091787;28;20455;-71
2023/04/09 13:35:29;;;;;;;1.90;1.30;;;;;;;;;;5092141;28;20935;-70
2023/04/09 13:37:56;;;;;;;1.43;1.00;;;;;;;;;;5091465;28;20452;-70
2023/04/09 13:40:23;;;;;;;1.57;1.27;;;;;;;;;;5092253;28;20452;-70
2023/04/09 13:42:50;;;;;;;1.50;1.40;;;;;;;;;;5091367;28;20481;-70
2023/04/09 13:45:19;;;;;;;1.67;1.40;;;;;;;;;;5092386;28;20798;-70
2023/04/09 13:47:46;;;;;;;3.47;1.03;;;;;;;;;;5091549;28;20924;-70
2023/04/09 13:50:14;;;;;;;1.37;1.27;;;;;;;;;;5092218;28;20452;-70
2023/04/09 13:52:41;;;;;;;1.80;1.00;;;;;;;;;;5091516;28;20452;-71
2023/04/09 13:55:10;;;;;;;3.27;1.57;;;;;;;;;;5091718;28;20460;-70
2023/04/09 13:57:37;;;;;;;1.53;1.43;;;;;;;;;;5077897;28;20927;-70
2023/04/09 14:00:04;;;;;;;2.33;2.00;;;;;;;;;;5091782;28;20471;-70
2023/04/09 14:02:33;;;;;;;2.63;1.77;;;;;;;;;;5091819;28;20929;-70
2023/04/09 14:05:01;;;;;;;1.47;1.20;;;;;;;;;;5091206;28;20858;-70
2023/04/09 14:07:28;;;;;;;1.43;1.33;;;;;;;;;;5091344;28;20449;-70
2023/04/09 14:09:55;;;;;;;1.77;1.67;;;;;;;;;;5090754;28;20923;-70
2023/04/09 14:12:22;;;;;;;1.83;1.70;;;;;;;;;;5090410;28;20476;-70
2023/04/09 14:14:50;;;;;;;1.43;1.30;;;;;;;;;;5091120;28;20535;-70
2023/04/09 14:17:17;;;;;;;1.50;1.40;;;;;;;;;;5091302;28;20457;-70
2023/04/09 14:19:45;;;;;;;1.73;1.43;;;;;;;;;;5090724;28;20460;-70
2023/04/09 14:22:13;;;;;;;1.37;1.20;;;;;;;;;;5091006;28;20492;-70
2023/04/09 14:24:40;;;;;;;1.13;1.03;;;;;;;;;;5090853;28;20810;-70
2023/04/09 14:27:07;;;;;;;2.23;1.57;;;;;;;;;;5091046;28;20912;-70
2023/04/09 14:29:34;;;;;;;3.07;1.87;;;;;;;;;;5091430;28;20862;-70
2023/04/09 14:32:01;;;;;;;1.93;1.60;;;;;;;;;;5090860;28;20448;-70
2023/04/09 14:34:30;;;;;;;2.70;2.13;;;;;;;;;;5091034;28;20445;-70
2023/04/09 14:36:58;;;;;;;2.43;1.50;;;;;;;;;;5090396;28;20448;-70
2023/04/09 14:39:26;;;;;;;1.40;1.30;;;;;;;;;;5090908;28;20456;-70
2023/04/09 14:41:53;;;;;;;1.37;1.20;;;;;;;;;;5090482;28;20450;-70
2023/04/09 14:44:21;;;;;;;2.17;1.47;;;;;;;;;;5091157;28;20539;-71
2023/04/09 14:46:48;;;;;;;2.40;1.73;;;;;;;;;;5090282;28;20448;-70